Time,TemperatureF,DewpointF,PressureIn,WindDirection,WindDirectionDegrees,WindSpeedMPH,WindSpeedGustMPH,Humidity,HourlyPrecipIn,Conditions,Clouds,dailyrainin,SoftwareType,DateUTC
2013-05-11 00:06:00,59.3,58.4,29.61,South,188,10.0,19.0,97,0.00,,,0.35,Wunderground v.1.15,2013-05-11 04:06:00,
2013-05-11 00:08:00,59.3,58.4,29.61,South,186,11.0,19.0,97,0.00,,,0.35,Wunderground v.1.15,2013-05-11 04:08:00,
2013-05-11 00:10:00,59.2,58.3,29.61,SSW,209,11.0,19.0,97,0.00,,,0.35,Wunderground v.1.15,2013-05-11 04:10:00,
2013-05-11 00:16:00,59.2,58.3,29.61,South,181,10.0,19.0,97,0.00,,,0.36,Wunderground v.1.15,2013-05-11 04:16:00,
2013-05-11 00:22:00,59.1,58.2,29.61,South,189,11.0,19.0,97,0.00,,,0.36,Wunderground v.1.15,2013-05-11 04:22:00,
2013-05-11 00:28:00,59.0,58.2,29.60,South,187,12.0,19.0,97,0.00,,,0.36,Wunderground v.1.15,2013-05-11 04:28:00,
2013-05-11 00:34:00,59.0,58.2,29.60,South,175,12.0,19.0,97,0.00,,,0.37,Wunderground v.1.15,2013-05-11 04:34:00,
2013-05-11 00:39:00,58.9,58.0,29.60,South,180,15.0,21.0,97,0.02,,,0.37,weatherlink.com 1.10,2013-05-11 04:39:00,
2013-05-11 00:46:00,58.9,58.1,29.60,SSW,206,13.0,19.0,97,0.31,,,0.40,Wunderground v.1.15,2013-05-11 04:46:00,
2013-05-11 00:52:00,58.8,58.0,29.60,South,189,12.0,13.0,97,0.09,,,0.41,Wunderground v.1.15,2013-05-11 04:52:00,
2013-05-11 00:58:00,58.7,57.9,29.60,South,186,12.0,19.0,97,0.11,,,0.01,Wunderground v.1.15,2013-05-11 04:58:00,
2013-05-11 01:04:00,58.7,57.9,29.59,South,189,13.0,21.0,97,0.10,,,0.02,Wunderground v.1.15,2013-05-11 05:04:00,
2013-05-11 01:10:00,58.6,57.8,29.59,SSW,199,11.0,11.0,97,0.13,,,0.03,Wunderground v.1.15,2013-05-11 05:10:00,
2013-05-11 01:15:00,58.6,57.8,29.59,South,190,10.0,21.0,97,0.09,,,0.04,Wunderground v.1.15,2013-05-11 05:15:00,
2013-05-11 01:22:00,58.6,57.8,29.59,South,188,12.0,21.0,97,0.08,,,0.04,Wunderground v.1.15,2013-05-11 05:22:00,
2013-05-11 01:28:00,58.6,58.0,29.58,South,181,11.0,21.0,98,0.08,,,0.05,Wunderground v.1.15,2013-05-11 05:28:00,
2013-05-11 01:34:00,58.5,57.9,29.58,South,176,10.0,21.0,98,0.05,,,0.05,Wunderground v.1.15,2013-05-11 05:34:00,
2013-05-11 01:40:00,58.5,57.9,29.58,SSW,194,10.0,10.0,98,0.00,,,0.05,Wunderground v.1.15,2013-05-11 05:40:00,
2013-05-11 01:46:00,58.5,57.9,29.58,South,188,9.0,21.0,98,0.00,,,0.05,Wunderground v.1.15,2013-05-11 05:46:00,
2013-05-11 01:52:00,58.5,57.9,29.57,SSW,194,10.0,21.0,98,0.00,,,0.06,Wunderground v.1.15,2013-05-11 05:52:00,
2013-05-11 01:58:00,58.5,57.9,29.57,SSW,192,11.0,21.0,98,0.00,,,0.06,Wunderground v.1.15,2013-05-11 05:58:00,
2013-05-11 02:04:00,58.5,57.9,29.57,SSW,199,11.0,18.0,98,0.05,,,0.07,Wunderground v.1.15,2013-05-11 06:04:00,
2013-05-11 02:10:00,58.5,57.9,29.57,SSW,195,9.0,18.0,98,0.05,,,0.07,Wunderground v.1.15,2013-05-11 06:10:00,
2013-05-11 02:16:00,58.5,57.9,29.57,SSW,194,9.0,18.0,98,0.04,,,0.07,Wunderground v.1.15,2013-05-11 06:16:00,
2013-05-11 02:21:00,58.5,57.9,29.57,SSW,200,9.0,18.0,98,0.00,,,0.07,Wunderground v.1.15,2013-05-11 06:21:00,
2013-05-11 02:28:00,58.5,57.9,29.57,SSW,192,8.0,18.0,98,0.00,,,0.07,Wunderground v.1.15,2013-05-11 06:28:00,
2013-05-11 02:34:00,58.6,58.0,29.57,SW,215,7.0,18.0,98,0.00,,,0.07,Wunderground v.1.15,2013-05-11 06:34:00,
2013-05-11 02:39:00,58.5,57.9,29.57,SSW,199,4.0,18.0,98,0.36,,,0.09,Wunderground v.1.15,2013-05-11 06:39:00,
2013-05-11 02:46:00,58.6,58.0,29.57,SSW,194,5.0,18.0,98,0.08,,,0.09,Wunderground v.1.15,2013-05-11 06:46:00,
2013-05-11 02:52:00,58.6,58.0,29.57,SSW,201,6.0,18.0,98,0.04,,,0.09,Wunderground v.1.15,2013-05-11 06:52:00,
2013-05-11 02:58:00,58.6,58.0,29.57,SSW,205,6.0,18.0,98,0.00,,,0.09,Wunderground v.1.15,2013-05-11 06:58:00,
2013-05-11 03:04:00,58.6,58.0,29.57,SW,222,6.0,18.0,98,0.00,,,0.09,Wunderground v.1.15,2013-05-11 07:04:00,
2013-05-11 03:09:00,58.6,58.0,29.57,WSW,238,6.0,6.0,98,0.00,,,0.09,Wunderground v.1.15,2013-05-11 07:09:00,
2013-05-11 03:16:00,58.6,58.0,29.57,SSW,196,6.0,18.0,98,0.00,,,0.09,Wunderground v.1.15,2013-05-11 07:16:00,
2013-05-11 03:22:00,58.6,58.0,29.56,SSW,193,6.0,18.0,98,0.00,,,0.09,Wunderground v.1.15,2013-05-11 07:22:00,
2013-05-11 03:28:00,58.6,58.0,29.56,SSW,192,6.0,18.0,98,0.00,,,0.09,Wunderground v.1.15,2013-05-11 07:28:00,
2013-05-11 03:34:00,58.6,58.0,29.56,SSW,196,7.0,18.0,98,0.00,,,0.09,Wunderground v.1.15,2013-05-11 07:34:00,
2013-05-11 03:40:00,58.6,58.0,29.56,SSW,197,6.0,18.0,98,0.00,,,0.09,Wunderground v.1.15,2013-05-11 07:40:00,
2013-05-11 03:46:00,58.4,57.8,29.56,SSW,196,6.0,18.0,98,0.00,,,0.09,Wunderground v.1.15,2013-05-11 07:46:00,
2013-05-11 03:52:00,58.3,57.7,29.56,South,191,6.0,18.0,98,0.00,,,0.09,Wunderground v.1.15,2013-05-11 07:52:00,
2013-05-11 03:58:00,58.3,57.7,29.56,SSW,193,6.0,18.0,98,0.00,,,0.09,Wunderground v.1.15,2013-05-11 07:58:00,
2013-05-11 04:03:00,58.4,57.8,29.56,South,191,6.0,12.0,98,0.00,,,0.09,Wunderground v.1.15,2013-05-11 08:03:00,
2013-05-11 04:10:00,58.5,58.2,29.56,South,182,6.0,6.0,99,0.00,,,0.09,Wunderground v.1.15,2013-05-11 08:10:00,
2013-05-11 04:16:00,58.5,57.9,29.56,SSW,194,6.0,12.0,98,0.00,,,0.09,Wunderground v.1.15,2013-05-11 08:16:00,
2013-05-11 04:22:00,58.6,58.0,29.56,South,179,7.0,12.0,98,0.00,,,0.09,Wunderground v.1.15,2013-05-11 08:22:00,
2013-05-11 04:27:00,58.6,58.0,29.56,SSW,195,5.0,9.0,98,0.00,,,0.09,weatherlink.com 1.10,2013-05-11 08:27:00,
2013-05-11 04:34:00,58.7,58.1,29.56,South,183,5.0,12.0,98,0.00,,,0.09,Wunderground v.1.15,2013-05-11 08:34:00,
2013-05-11 04:40:00,58.7,58.1,29.56,South,186,6.0,12.0,98,0.00,,,0.09,Wunderground v.1.15,2013-05-11 08:40:00,
2013-05-11 04:46:00,58.7,58.1,29.56,South,184,5.0,12.0,98,0.00,,,0.09,Wunderground v.1.15,2013-05-11 08:46:00,
2013-05-11 04:52:00,58.7,58.1,29.55,South,185,5.0,12.0,98,0.00,,,0.09,Wunderground v.1.15,2013-05-11 08:52:00,
2013-05-11 04:57:00,58.7,58.0,29.55,South,182,5.0,9.0,98,0.00,,,0.09,weatherlink.com 1.10,2013-05-11 08:57:00,
2013-05-11 05:04:00,58.8,58.2,29.55,South,178,5.0,9.0,98,0.00,,,0.09,Wunderground v.1.15,2013-05-11 09:04:00,
2013-05-11 05:10:00,58.8,58.2,29.55,South,184,6.0,9.0,98,0.00,,,0.09,Wunderground v.1.15,2013-05-11 09:10:00,
2013-05-11 05:16:00,58.8,58.2,29.55,SSE,166,6.0,9.0,98,0.00,,,0.09,Wunderground v.1.15,2013-05-11 09:16:00,
2013-05-11 05:22:00,58.8,58.2,29.55,South,177,5.0,9.0,98,0.00,,,0.09,Wunderground v.1.15,2013-05-11 09:22:00,
2013-05-11 05:27:00,58.8,58.0,29.55,South,182,4.0,7.0,98,0.00,,,0.09,weatherlink.com 1.10,2013-05-11 09:27:00,
2013-05-11 05:34:00,58.8,58.2,29.55,South,185,4.0,9.0,98,0.00,,,0.09,Wunderground v.1.15,2013-05-11 09:34:00,
2013-05-11 05:40:00,58.7,58.1,29.55,SSE,166,5.0,5.0,98,0.00,,,0.09,Wunderground v.1.15,2013-05-11 09:40:00,
2013-05-11 05:45:00,58.7,58.1,29.55,SSE,165,5.0,9.0,98,0.00,,,0.09,Wunderground v.1.15,2013-05-11 09:45:00,
2013-05-11 05:52:00,58.7,58.1,29.56,South,188,5.0,9.0,98,0.00,,,0.09,Wunderground v.1.15,2013-05-11 09:52:00,
2013-05-11 05:58:00,58.8,58.0,29.56,SSE,163,5.0,9.0,98,0.00,,,0.09,weatherlink.com 1.10,2013-05-11 09:58:00,
2013-05-11 06:04:00,58.9,58.3,29.55,South,186,6.0,9.0,98,0.00,,,0.09,Wunderground v.1.15,2013-05-11 10:04:00,
2013-05-11 06:10:00,58.9,58.3,29.55,South,175,6.0,9.0,98,0.00,,,0.09,Wunderground v.1.15,2013-05-11 10:10:00,
2013-05-11 06:16:00,58.9,58.3,29.55,South,188,6.0,9.0,98,0.00,,,0.09,Wunderground v.1.15,2013-05-11 10:16:00,
2013-05-11 06:21:00,58.9,58.3,29.56,South,188,6.0,9.0,98,0.00,,,0.09,Wunderground v.1.15,2013-05-11 10:21:00,
2013-05-11 06:27:00,58.9,58.0,29.55,South,171,3.0,9.0,98,0.00,,,0.09,weatherlink.com 1.10,2013-05-11 10:27:00,
2013-05-11 06:34:00,59.0,58.4,29.55,South,178,5.0,9.0,98,0.00,,,0.09,Wunderground v.1.15,2013-05-11 10:34:00,
2013-05-11 06:40:00,59.1,58.5,29.55,SSW,200,5.0,9.0,98,0.00,,,0.09,Wunderground v.1.15,2013-05-11 10:40:00,
2013-05-11 06:46:00,59.2,58.6,29.56,SSW,195,6.0,9.0,98,0.00,,,0.09,Wunderground v.1.15,2013-05-11 10:46:00,
2013-05-11 06:52:00,59.3,58.7,29.56,SSE,165,6.0,9.0,98,0.00,,,0.09,Wunderground v.1.15,2013-05-11 10:52:00,
2013-05-11 06:58:00,59.4,58.8,29.55,South,189,6.0,9.0,98,0.00,,,0.09,Wunderground v.1.15,2013-05-11 10:58:00,
2013-05-11 07:04:00,59.6,59.0,29.55,South,185,5.0,9.0,98,0.00,,,0.09,Wunderground v.1.15,2013-05-11 11:04:00,
2013-05-11 07:10:00,59.7,59.1,29.55,South,189,5.0,9.0,98,0.00,,,0.09,Wunderground v.1.15,2013-05-11 11:10:00,
2013-05-11 07:16:00,59.8,59.2,29.55,South,184,6.0,9.0,98,0.00,,,0.09,Wunderground v.1.15,2013-05-11 11:16:00,
2013-05-11 07:22:00,60.0,59.1,29.55,SSE,155,6.0,9.0,97,0.00,,,0.09,Wunderground v.1.15,2013-05-11 11:22:00,
2013-05-11 07:28:00,60.0,59.1,29.55,SSE,157,6.0,9.0,97,0.00,,,0.09,Wunderground v.1.15,2013-05-11 11:28:00,
2013-05-11 07:34:00,60.0,59.1,29.55,South,183,6.0,9.0,97,0.00,,,0.09,Wunderground v.1.15,2013-05-11 11:34:00,
2013-05-11 07:40:00,60.0,59.1,29.55,South,190,6.0,9.0,97,0.00,,,0.09,Wunderground v.1.15,2013-05-11 11:40:00,
2013-05-11 07:46:00,60.0,59.1,29.55,South,188,6.0,9.0,97,0.00,,,0.09,Wunderground v.1.15,2013-05-11 11:46:00,
2013-05-11 07:51:00,60.0,59.1,29.55,SSW,194,6.0,9.0,97,0.00,,,0.09,Wunderground v.1.15,2013-05-11 11:51:00,
2013-05-11 07:58:00,60.1,59.2,29.55,SSW,193,6.0,9.0,97,0.00,,,0.09,Wunderground v.1.15,2013-05-11 11:58:00,
2013-05-11 08:04:00,60.1,59.2,29.55,SSW,208,6.0,11.0,97,0.00,,,0.09,Wunderground v.1.15,2013-05-11 12:04:00,
2013-05-11 08:10:00,60.0,59.1,29.57,West,259,4.0,11.0,97,0.00,,,0.10,Wunderground v.1.15,2013-05-11 12:10:00,
2013-05-11 08:16:00,58.5,57.1,29.56,WNW,282,6.0,11.0,95,0.49,,,0.19,Wunderground v.1.15,2013-05-11 12:16:00,
2013-05-11 08:22:00,57.8,56.7,29.56,West,277,9.0,12.0,96,0.16,,,0.21,Wunderground v.1.15,2013-05-11 12:22:00,
2013-05-11 08:27:00,57.7,56.9,29.56,NW,306,10.0,12.0,97,0.13,,,0.23,Wunderground v.1.15,2013-05-11 12:27:00,
2013-05-11 08:34:00,57.8,57.2,29.56,WNW,291,7.0,11.0,98,0.05,,,0.23,Wunderground v.1.15,2013-05-11 12:34:00,
2013-05-11 08:40:00,57.9,57.3,29.56,WSW,246,6.0,11.0,98,0.00,,,0.23,Wunderground v.1.15,2013-05-11 12:40:00,
2013-05-11 08:46:00,57.8,57.2,29.56,West,275,4.0,11.0,98,0.00,,,0.24,Wunderground v.1.15,2013-05-11 12:46:00,
2013-05-11 08:52:00,58.0,57.7,29.56,WNW,293,3.0,11.0,99,0.00,,,0.24,Wunderground v.1.15,2013-05-11 12:52:00,
2013-05-11 08:58:00,58.1,57.8,29.56,WSW,255,2.0,11.0,99,0.00,,,0.24,Wunderground v.1.15,2013-05-11 12:58:00,
2013-05-11 09:04:00,58.1,57.8,29.56,SSW,212,2.0,11.0,99,0.00,,,0.24,Wunderground v.1.15,2013-05-11 13:04:00,
2013-05-11 09:10:00,58.2,57.9,29.57,WNW,299,5.0,11.0,99,0.00,,,0.24,Wunderground v.1.15,2013-05-11 13:10:00,
2013-05-11 09:16:00,58.2,57.9,29.57,WNW,295,3.0,11.0,99,0.00,,,0.24,Wunderground v.1.15,2013-05-11 13:16:00,
2013-05-11 09:22:00,58.1,57.8,29.57,West,266,4.0,11.0,99,0.00,,,0.24,Wunderground v.1.15,2013-05-11 13:22:00,
2013-05-11 09:28:00,58.2,57.9,29.56,WNW,292,4.0,11.0,99,0.00,,,0.24,Wunderground v.1.15,2013-05-11 13:28:00,
2013-05-11 09:34:00,56.7,55.9,29.57,NW,314,5.0,11.0,97,0.00,,,0.24,Wunderground v.1.15,2013-05-11 13:34:00,
2013-05-11 09:40:00,55.6,54.8,29.57,NW,323,6.0,11.0,97,0.00,,,0.24,Wunderground v.1.15,2013-05-11 13:40:00,
2013-05-11 09:46:00,55.2,54.6,29.57,NNW,346,5.0,11.0,98,0.00,,,0.24,Wunderground v.1.15,2013-05-11 13:46:00,
2013-05-11 09:52:00,55.2,54.6,29.57,NW,311,5.0,11.0,98,0.00,,,0.24,Wunderground v.1.15,2013-05-11 13:52:00,
2013-05-11 09:58:00,55.1,54.5,29.58,North,355,6.0,11.0,98,0.00,,,0.24,Wunderground v.1.15,2013-05-11 13:58:00,
2013-05-11 10:04:00,54.9,54.3,29.58,NNW,331,5.0,16.0,98,0.00,,,0.24,Wunderground v.1.15,2013-05-11 14:04:00,
2013-05-11 10:10:00,54.8,54.0,29.58,NW,319,5.0,16.0,97,0.00,,,0.24,Wunderground v.1.15,2013-05-11 14:10:00,
2013-05-11 10:16:00,54.7,53.9,29.58,North,360,5.0,16.0,97,0.00,,,0.24,Wunderground v.1.15,2013-05-11 14:16:00,
2013-05-11 10:22:00,54.5,53.7,29.58,NW,316,5.0,5.0,97,0.00,,,0.24,Wunderground v.1.15,2013-05-11 14:22:00,
2013-05-11 10:28:00,54.4,53.3,29.58,NNW,342,5.0,16.0,96,0.00,,,0.24,Wunderground v.1.15,2013-05-11 14:28:00,
2013-05-11 10:34:00,54.5,53.4,29.58,NE,34,5.0,16.0,96,0.00,,,0.24,Wunderground v.1.15,2013-05-11 14:34:00,
2013-05-11 10:40:00,54.4,53.0,29.58,NW,317,5.0,16.0,95,0.00,,,0.24,Wunderground v.1.15,2013-05-11 14:40:00,
2013-05-11 10:45:00,54.4,53.0,29.58,NW,325,7.0,14.0,94,0.00,,,0.24,weatherlink.com 1.10,2013-05-11 14:45:00,
2013-05-11 10:52:00,54.8,53.1,29.58,NW,315,5.0,5.0,94,0.00,,,0.24,Wunderground v.1.15,2013-05-11 14:52:00,
2013-05-11 10:58:00,55.1,53.1,29.58,NW,315,5.0,16.0,93,0.00,,,0.24,Wunderground v.1.15,2013-05-11 14:58:00,
2013-05-11 11:04:00,55.7,53.4,29.58,North,351,5.0,14.0,92,0.00,,,0.24,Wunderground v.1.15,2013-05-11 15:04:00,
2013-05-11 11:09:00,56.0,52.8,29.58,NW,320,6.0,14.0,89,0.00,,,0.24,Wunderground v.1.15,2013-05-11 15:09:00,
2013-05-11 11:16:00,56.2,53.0,29.59,WNW,297,9.0,14.0,89,0.00,,,0.24,Wunderground v.1.15,2013-05-11 15:16:00,
2013-05-11 11:22:00,56.1,52.9,29.59,NW,319,7.0,14.0,89,0.00,,,0.24,Wunderground v.1.15,2013-05-11 15:22:00,
2013-05-11 11:28:00,55.8,52.6,29.59,NW,319,5.0,14.0,89,0.00,,,0.24,Wunderground v.1.15,2013-05-11 15:28:00,
2013-05-11 11:34:00,55.7,52.2,29.59,NW,321,6.0,14.0,88,0.00,,,0.24,Wunderground v.1.15,2013-05-11 15:34:00,
2013-05-11 11:40:00,55.9,52.4,29.59,NW,309,7.0,7.0,88,0.00,,,0.24,Wunderground v.1.15,2013-05-11 15:40:00,
2013-05-11 11:45:00,56.3,53.0,29.59,NNW,339,4.0,14.0,88,0.00,,,0.24,weatherlink.com 1.10,2013-05-11 15:45:00,
2013-05-11 11:52:00,56.6,53.1,29.59,NW,309,6.0,14.0,88,0.00,,,0.24,Wunderground v.1.15,2013-05-11 15:52:00,
2013-05-11 11:58:00,56.7,52.9,29.58,NNW,347,6.0,14.0,87,0.00,,,0.24,Wunderground v.1.15,2013-05-11 15:58:00,
2013-05-11 12:06:00,57.1,53.3,29.59,NW,306,4.0,14.0,87,0.00,,,0.24,Wunderground v.1.15,2013-05-11 16:06:00,
2013-05-11 12:12:00,57.5,53.7,29.59,NNW,346,5.0,14.0,87,0.00,,,0.24,Wunderground v.1.15,2013-05-11 16:12:00,
2013-05-11 12:18:00,58.2,54.0,29.58,NW,315,6.0,14.0,86,0.00,,,0.24,Wunderground v.1.15,2013-05-11 16:18:00,
2013-05-11 12:23:00,58.2,53.4,29.58,NNE,17,6.0,14.0,84,0.00,,,0.24,Wunderground v.1.15,2013-05-11 16:23:00,
2013-05-11 12:30:00,58.1,53.0,29.58,NNW,339,6.0,6.0,83,0.00,,,0.24,Wunderground v.1.15,2013-05-11 16:30:00,
2013-05-11 12:36:00,58.3,54.1,29.58,NNW,348,5.0,14.0,86,0.00,,,0.24,Wunderground v.1.15,2013-05-11 16:36:00,
2013-05-11 12:42:00,58.4,53.6,29.58,NNW,334,5.0,14.0,84,0.00,,,0.24,Wunderground v.1.15,2013-05-11 16:42:00,
2013-05-11 12:47:00,58.1,53.3,29.58,North,11,5.0,14.0,84,0.00,,,0.24,Wunderground v.1.15,2013-05-11 16:47:00,
2013-05-11 12:53:00,57.9,53.7,29.58,NNW,345,6.0,14.0,86,0.00,,,0.24,Wunderground v.1.15,2013-05-11 16:53:00,
2013-05-11 13:00:00,57.5,53.0,29.58,North,355,6.0,6.0,85,0.00,,,0.24,Wunderground v.1.15,2013-05-11 17:00:00,
2013-05-11 13:06:00,57.7,53.2,29.58,North,355,5.0,15.0,85,0.00,,,0.24,Wunderground v.1.15,2013-05-11 17:06:00,
2013-05-11 13:12:00,57.2,52.7,29.58,North,360,5.0,15.0,85,0.00,,,0.24,Wunderground v.1.15,2013-05-11 17:12:00,
2013-05-11 13:17:00,57.3,53.0,29.58,NNW,342,3.0,9.0,85,0.00,,,0.24,weatherlink.com 1.10,2013-05-11 17:17:00,
2013-05-11 13:24:00,57.4,52.6,29.58,WNW,300,4.0,15.0,84,0.00,,,0.24,Wunderground v.1.15,2013-05-11 17:24:00,
2013-05-11 13:30:00,57.7,53.2,29.58,North,350,5.0,5.0,85,0.00,,,0.24,Wunderground v.1.15,2013-05-11 17:30:00,
2013-05-11 13:36:00,57.7,52.9,29.58,NW,321,6.0,15.0,84,0.00,,,0.24,Wunderground v.1.15,2013-05-11 17:36:00,
2013-05-11 13:42:00,57.7,53.2,29.58,North,5,6.0,15.0,85,0.00,,,0.24,Wunderground v.1.15,2013-05-11 17:42:00,
2013-05-11 13:48:00,57.8,53.0,29.59,NW,305,6.0,15.0,84,0.00,,,0.24,Wunderground v.1.15,2013-05-11 17:48:00,
2013-05-11 13:54:00,58.0,52.9,29.59,NNW,344,7.0,15.0,83,0.00,,,0.24,Wunderground v.1.15,2013-05-11 17:54:00,
2013-05-11 14:00:00,58.2,52.7,29.58,North,350,6.0,6.0,82,0.00,,,0.24,Wunderground v.1.15,2013-05-11 18:00:00,
2013-05-11 14:06:00,58.4,53.3,29.59,NW,315,6.0,13.0,83,0.00,,,0.24,Wunderground v.1.15,2013-05-11 18:06:00,
2013-05-11 14:12:00,58.2,52.4,29.59,NNW,342,6.0,13.0,81,0.00,,,0.24,Wunderground v.1.15,2013-05-11 18:12:00,
2013-05-11 14:18:00,58.1,53.0,29.59,North,5,5.0,13.0,83,0.00,,,0.24,Wunderground v.1.15,2013-05-11 18:18:00,
2013-05-11 14:24:00,58.1,53.3,29.59,NNW,342,5.0,13.0,84,0.00,,,0.24,Wunderground v.1.15,2013-05-11 18:24:00,
2013-05-11 14:30:00,58.4,53.6,29.58,NNW,331,5.0,13.0,84,0.00,,,0.24,Wunderground v.1.15,2013-05-11 18:30:00,
2013-05-11 14:36:00,58.3,52.8,29.58,NNW,333,6.0,13.0,82,0.00,,,0.24,Wunderground v.1.15,2013-05-11 18:36:00,
2013-05-11 14:42:00,57.8,52.3,29.58,NNW,340,6.0,13.0,82,0.00,,,0.24,Wunderground v.1.15,2013-05-11 18:42:00,
2013-05-11 14:47:00,57.8,53.3,29.59,NNW,343,5.0,13.0,85,0.00,,,0.24,Wunderground v.1.15,2013-05-11 18:47:00,
2013-05-11 14:54:00,58.0,52.9,29.59,North,355,4.0,13.0,83,0.00,,,0.24,Wunderground v.1.15,2013-05-11 18:54:00,
2013-05-11 15:00:00,58.1,53.0,29.58,NNW,331,5.0,5.0,83,0.00,,,0.24,Wunderground v.1.15,2013-05-11 19:00:00,
2013-05-11 15:06:00,58.1,52.6,29.58,North,355,5.0,13.0,82,0.00,,,0.24,Wunderground v.1.15,2013-05-11 19:06:00,
2013-05-11 15:12:00,58.0,52.5,29.58,NNW,329,4.0,13.0,82,0.00,,,0.24,Wunderground v.1.15,2013-05-11 19:12:00,
2013-05-11 15:17:00,57.8,52.0,29.58,North,350,3.0,10.0,82,0.00,,,0.24,weatherlink.com 1.10,2013-05-11 19:17:00,
2013-05-11 15:24:00,58.2,52.4,29.58,NW,306,4.0,13.0,81,0.00,,,0.24,Wunderground v.1.15,2013-05-11 19:24:00,
2013-05-11 15:30:00,58.5,53.0,29.58,NNW,338,5.0,13.0,82,0.00,,,0.24,Wunderground v.1.15,2013-05-11 19:30:00,
2013-05-11 15:36:00,58.7,52.5,29.58,NNW,346,5.0,13.0,80,0.00,,,0.24,Wunderground v.1.15,2013-05-11 19:36:00,
2013-05-11 15:42:00,58.9,52.4,29.58,North,11,5.0,13.0,79,0.00,,,0.24,Wunderground v.1.15,2013-05-11 19:42:00,
2013-05-11 15:48:00,58.7,52.2,29.58,North,355,5.0,13.0,79,0.00,,,0.24,Wunderground v.1.15,2013-05-11 19:48:00,
2013-05-11 15:54:00,58.6,52.1,29.58,NNW,348,5.0,13.0,79,0.00,,,0.24,Wunderground v.1.15,2013-05-11 19:54:00,
2013-05-11 16:00:00,58.7,52.5,29.58,West,281,4.0,7.0,80,0.00,,,0.24,Wunderground v.1.15,2013-05-11 20:00:00,
2013-05-11 16:06:00,59.0,52.1,29.58,North,355,4.0,10.0,78,0.00,,,0.24,Wunderground v.1.15,2013-05-11 20:06:00,
2013-05-11 16:12:00,59.0,52.5,29.58,NNW,348,5.0,10.0,79,0.00,,,0.24,Wunderground v.1.15,2013-05-11 20:12:00,
2013-05-11 16:18:00,59.0,52.5,29.58,NW,319,5.0,10.0,79,0.00,,,0.24,Wunderground v.1.15,2013-05-11 20:18:00,
2013-05-11 16:23:00,58.8,52.0,29.58,NW,310,5.0,10.0,78,0.00,,,0.24,Wunderground v.1.15,2013-05-11 20:23:00,
2013-05-11 16:30:00,58.9,51.7,29.58,NNW,344,5.0,10.0,77,0.00,,,0.24,Wunderground v.1.15,2013-05-11 20:30:00,
2013-05-11 16:36:00,58.9,51.3,29.58,NW,318,5.0,10.0,76,0.00,,,0.24,Wunderground v.1.15,2013-05-11 20:36:00,
2013-05-11 16:42:00,59.1,51.2,29.58,NNW,346,6.0,10.0,75,0.00,,,0.24,Wunderground v.1.15,2013-05-11 20:42:00,
2013-05-11 16:48:00,59.2,51.3,29.58,WNW,292,6.0,10.0,75,0.00,,,0.24,Wunderground v.1.15,2013-05-11 20:48:00,
2013-05-11 16:54:00,59.3,51.4,29.58,NNW,341,6.0,10.0,75,0.00,,,0.24,Wunderground v.1.15,2013-05-11 20:54:00,
2013-05-11 17:00:00,58.9,50.6,29.58,NNW,348,6.0,6.0,74,0.00,,,0.24,Wunderground v.1.15,2013-05-11 21:00:00,
2013-05-11 17:06:00,58.8,51.2,29.58,NNW,347,7.0,11.0,76,0.00,,,0.24,Wunderground v.1.15,2013-05-11 21:06:00,
2013-05-11 17:12:00,58.8,52.0,29.58,NNW,338,6.0,13.0,78,0.00,,,0.24,Wunderground v.1.15,2013-05-11 21:12:00,
2013-05-11 17:18:00,58.8,51.6,29.58,North,349,6.0,13.0,77,0.00,,,0.24,Wunderground v.1.15,2013-05-11 21:18:00,
2013-05-11 17:24:00,58.7,51.2,29.58,North,350,6.0,13.0,76,0.00,,,0.24,Wunderground v.1.15,2013-05-11 21:24:00,
2013-05-11 17:30:00,58.7,51.5,29.58,NW,314,6.0,13.0,77,0.00,,,0.24,Wunderground v.1.15,2013-05-11 21:30:00,
2013-05-11 17:36:00,58.6,51.4,29.58,NNW,338,6.0,13.0,77,0.00,,,0.24,Wunderground v.1.15,2013-05-11 21:36:00,
2013-05-11 17:42:00,58.8,51.2,29.58,NNW,344,5.0,13.0,76,0.00,,,0.24,Wunderground v.1.15,2013-05-11 21:42:00,
2013-05-11 17:47:00,58.7,51.2,29.58,North,350,5.0,13.0,76,0.00,,,0.24,Wunderground v.1.15,2013-05-11 21:47:00,
2013-05-11 17:54:00,58.6,51.1,29.58,North,9,5.0,13.0,76,0.00,,,0.24,Wunderground v.1.15,2013-05-11 21:54:00,
2013-05-11 18:00:00,58.4,50.9,29.58,North,350,5.0,7.0,76,0.00,,,0.24,Wunderground v.1.15,2013-05-11 22:00:00,
2013-05-11 18:08:00,58.3,51.1,29.58,North,351,5.0,13.0,77,0.00,,,0.24,Wunderground v.1.15,2013-05-11 22:08:00,
2013-05-11 18:14:00,58.2,51.0,29.58,NNE,22,6.0,13.0,77,0.00,,,0.24,Wunderground v.1.15,2013-05-11 22:14:00,
2013-05-11 18:20:00,57.9,50.7,29.58,NNW,327,6.0,13.0,77,0.00,,,0.24,Wunderground v.1.15,2013-05-11 22:20:00,
2013-05-11 18:26:00,57.8,50.3,29.59,North,11,6.0,13.0,76,0.00,,,0.24,Wunderground v.1.15,2013-05-11 22:26:00,
2013-05-11 18:32:00,57.7,50.2,29.59,North,360,6.0,13.0,76,0.00,,,0.24,Wunderground v.1.15,2013-05-11 22:32:00,
2013-05-11 18:38:00,57.5,50.7,29.59,NW,308,6.0,13.0,78,0.00,,,0.24,Wunderground v.1.15,2013-05-11 22:38:00,
2013-05-11 18:44:00,57.2,50.4,29.59,North,355,6.0,13.0,78,0.00,,,0.24,Wunderground v.1.15,2013-05-11 22:44:00,
2013-05-11 18:50:00,57.1,50.3,29.59,NNW,340,5.0,13.0,78,0.00,,,0.24,Wunderground v.1.15,2013-05-11 22:50:00,
2013-05-11 18:56:00,56.9,50.1,29.59,NNW,330,6.0,13.0,78,0.00,,,0.24,Wunderground v.1.15,2013-05-11 22:56:00,
2013-05-11 19:01:00,56.9,50.1,29.59,NNW,340,5.0,14.0,78,0.00,,,0.24,Wunderground v.1.15,2013-05-11 23:01:00,
2013-05-11 19:08:00,56.8,50.0,29.59,NW,316,5.0,14.0,78,0.00,,,0.24,Wunderground v.1.15,2013-05-11 23:08:00,
2013-05-11 19:14:00,56.7,49.9,29.59,NW,318,5.0,14.0,78,0.00,,,0.24,Wunderground v.1.15,2013-05-11 23:14:00,
2013-05-11 19:20:00,56.6,49.8,29.59,NNW,341,5.0,14.0,78,0.00,,,0.24,Wunderground v.1.15,2013-05-11 23:20:00,
2013-05-11 19:26:00,56.5,49.7,29.59,NNW,329,5.0,14.0,78,0.00,,,0.24,Wunderground v.1.15,2013-05-11 23:26:00,
2013-05-11 19:32:00,56.4,49.6,29.60,NNW,338,5.0,14.0,78,0.00,,,0.24,Wunderground v.1.15,2013-05-11 23:32:00,
2013-05-11 19:38:00,56.4,50.6,29.60,NNW,347,4.0,14.0,81,0.00,,,0.24,Wunderground v.1.15,2013-05-11 23:38:00,
2013-05-11 19:44:00,56.3,51.2,29.60,NNW,346,4.0,14.0,83,0.00,,,0.24,Wunderground v.1.15,2013-05-11 23:44:00,
2013-05-11 19:50:00,56.2,51.4,29.60,North,350,3.0,14.0,84,0.00,,,0.24,Wunderground v.1.15,2013-05-11 23:50:00,
2013-05-11 19:56:00,56.0,51.6,29.60,North,360,3.0,14.0,85,0.00,,,0.24,Wunderground v.1.15,2013-05-11 23:56:00,
2013-05-11 20:02:00,55.8,51.4,29.60,NNW,337,4.0,10.0,85,0.00,,,0.24,Wunderground v.1.15,2013-05-12 00:02:00,
2013-05-11 20:08:00,55.7,51.6,29.60,NNE,19,4.0,10.0,86,0.00,,,0.24,Wunderground v.1.15,2013-05-12 00:08:00,
2013-05-11 20:14:00,55.6,51.5,29.60,North,5,4.0,10.0,86,0.00,,,0.24,Wunderground v.1.15,2013-05-12 00:14:00,
2013-05-11 20:19:00,55.5,51.4,29.60,North,360,4.0,10.0,86,0.00,,,0.24,Wunderground v.1.15,2013-05-12 00:19:00,
2013-05-11 20:26:00,55.4,51.6,29.60,North,5,3.0,10.0,87,0.00,,,0.24,Wunderground v.1.15,2013-05-12 00:26:00,
2013-05-11 20:31:00,55.3,51.5,29.61,North,9,3.0,10.0,87,0.00,,,0.24,Wunderground v.1.15,2013-05-12 00:31:00,
2013-05-11 20:38:00,55.0,51.5,29.62,North,355,2.0,10.0,88,0.00,,,0.24,Wunderground v.1.15,2013-05-12 00:38:00,
2013-05-11 20:44:00,54.9,51.4,29.61,North,355,0.0,10.0,88,0.00,,,0.24,Wunderground v.1.15,2013-05-12 00:44:00,
2013-05-11 20:50:00,54.8,51.6,29.61,NE,42,0.0,10.0,89,0.00,,,0.24,Wunderground v.1.15,2013-05-12 00:50:00,
2013-05-11 20:56:00,54.5,51.3,29.62,NE,42,0.0,10.0,89,0.00,,,0.24,Wunderground v.1.15,2013-05-12 00:56:00,
2013-05-11 21:01:00,54.4,51.5,29.62,NE,42,0.0,6.0,90,0.00,,,0.24,Wunderground v.1.15,2013-05-12 01:01:00,
2013-05-11 21:08:00,54.3,51.1,29.62,NE,34,0.0,6.0,89,0.00,,,0.24,Wunderground v.1.15,2013-05-12 01:08:00,
2013-05-11 21:14:00,54.4,51.2,29.62,North,5,1.0,6.0,89,0.00,,,0.24,Wunderground v.1.15,2013-05-12 01:14:00,
2013-05-11 21:20:00,54.5,51.3,29.62,North,355,2.0,6.0,89,0.00,,,0.24,Wunderground v.1.15,2013-05-12 01:20:00,
2013-05-11 21:26:00,54.3,50.8,29.62,NNW,339,2.0,6.0,88,0.00,,,0.24,Wunderground v.1.15,2013-05-12 01:26:00,
2013-05-11 21:32:00,54.2,50.7,29.62,North,5,1.0,1.0,88,0.00,,,0.24,Wunderground v.1.15,2013-05-12 01:32:00,
2013-05-11 21:38:00,54.0,50.5,29.63,NNE,21,1.0,6.0,88,0.00,,,0.24,Wunderground v.1.15,2013-05-12 01:38:00,
2013-05-11 21:44:00,53.7,50.2,29.63,NNE,24,2.0,6.0,88,0.00,,,0.24,Wunderground v.1.15,2013-05-12 01:44:00,
2013-05-11 21:50:00,53.7,50.2,29.63,NNE,23,1.0,6.0,88,0.00,,,0.24,Wunderground v.1.15,2013-05-12 01:50:00,
2013-05-11 21:56:00,53.5,49.4,29.63,NNE,30,1.0,6.0,86,0.00,,,0.24,Wunderground v.1.15,2013-05-12 01:56:00,
2013-05-11 22:01:00,53.5,49.4,29.62,NNE,19,1.0,5.0,86,0.00,,,0.24,Wunderground v.1.15,2013-05-12 02:01:00,
2013-05-11 22:07:00,53.6,49.2,29.62,NNE,17,0.0,5.0,85,0.00,,,0.24,Wunderground v.1.15,2013-05-12 02:07:00,
2013-05-11 22:14:00,53.5,49.1,29.62,NNE,12,1.0,5.0,85,0.00,,,0.24,Wunderground v.1.15,2013-05-12 02:14:00,
2013-05-11 22:20:00,53.4,49.3,29.61,NNE,13,1.0,1.0,86,0.00,,,0.24,Wunderground v.1.15,2013-05-12 02:20:00,
2013-05-11 22:26:00,53.2,49.4,29.61,North,11,0.0,5.0,87,0.00,,,0.24,Wunderground v.1.15,2013-05-12 02:26:00,
2013-05-11 22:32:00,53.2,49.1,29.61,North,11,0.0,5.0,86,0.00,,,0.24,Wunderground v.1.15,2013-05-12 02:32:00,
2013-05-11 22:38:00,53.1,49.0,29.61,North,11,0.0,5.0,86,0.00,,,0.24,Wunderground v.1.15,2013-05-12 02:38:00,
2013-05-11 22:44:00,53.0,48.9,29.61,North,11,0.0,5.0,86,0.00,,,0.24,Wunderground v.1.15,2013-05-12 02:44:00,
2013-05-11 22:49:00,52.8,48.4,29.60,North,11,0.0,5.0,85,0.00,,,0.24,Wunderground v.1.15,2013-05-12 02:49:00,
2013-05-11 22:56:00,52.6,48.2,29.60,NNW,329,0.0,5.0,85,0.00,,,0.24,Wunderground v.1.15,2013-05-12 02:56:00,
2013-05-11 23:02:00,52.2,48.1,29.60,NW,316,1.0,3.0,86,0.00,,,0.24,Wunderground v.1.15,2013-05-12 03:02:00,
2013-05-11 23:07:00,52.0,48.0,29.60,NNW,343,0.0,5.0,86,0.00,,,0.24,weatherlink.com 1.10,2013-05-12 03:07:00,
2013-05-11 23:13:00,51.9,47.8,29.60,North,355,1.0,4.0,86,0.00,,,0.24,Wunderground v.1.15,2013-05-12 03:13:00,
2013-05-11 23:20:00,51.8,47.7,29.60,NNE,13,0.0,4.0,86,0.00,,,0.24,Wunderground v.1.15,2013-05-12 03:20:00,
2013-05-11 23:26:00,51.7,47.6,29.60,North,5,0.0,4.0,86,0.00,,,0.24,Wunderground v.1.15,2013-05-12 03:26:00,
2013-05-11 23:31:00,51.7,48.0,29.60,North,350,0.0,4.0,87,0.00,,,0.24,Wunderground v.1.15,2013-05-12 03:31:00,
2013-05-11 23:38:00,51.4,47.7,29.60,North,349,1.0,4.0,87,0.00,,,0.24,Wunderground v.1.15,2013-05-12 03:38:00,
2013-05-11 23:44:00,51.1,47.7,29.60,NNW,338,3.0,4.0,88,0.00,,,0.24,Wunderground v.1.15,2013-05-12 03:44:00,
2013-05-11 23:49:00,50.9,47.8,29.60,North,5,4.0,4.0,89,0.00,,,0.24,Wunderground v.1.15,2013-05-12 03:49:00,
2013-05-11 23:55:00,50.7,47.6,29.60,North,351,3.0,5.0,89,0.00,,,0.24,Wunderground v.1.15,2013-05-12 03:55:00,